Latest Weather Observations for Naracoorte

IDS60801

Issued at 9:31 am CST Wednesday 1 July 2015 (issued every 30 minutes, with the page automatically refreshed every 10 minutes)

About weather observations | Map of weather stations | Latest weather observations for SA | Other Formats
Station Details ID: 026099 Name: NARACOORTE AERODROME Lat: -36.98 Lon: 140.73 Height: 49.72 m
Data from the previous 72 hours. | See also: Recent months at Naracoorte
Date/Time
CST
Temp
°C
App
Temp
°C
Dew
Point
Rel
Hum
%
Delta-T
°C
Wind Press
QNH
hPa
Press
MSL
hPa
Rain
since 9 am
mm
Dir
 
Spd
km/h
Gust
km/h
Spd
kts
Gust
kts
01/09:30am 8.7 4.8 7.3 91 0.7 NNW 17 22 9 12 1028.0 1028.1 0.0
01/09:00am 8.1 5.1 7.5 96 0.3 NNW 13 22 7 12 1028.2 1028.3 0.0
01/08:30am 6.7 3.8 6.4 98 0.1 NNE 11 13 6 7 1028.1 1028.2 0.0
01/08:00am 5.3 1.7 5.0 98 0.1 NNE 13 15 7 8 1028.1 1028.2 0.0
01/07:30am 4.8 1.1 4.5 98 0.1 N 13 17 7 9 1028.3 1028.4 0.0
01/07:00am 5.1 1.5 4.8 98 0.1 N 13 15 7 8 1028.0 1028.1 0.0
01/06:30am 5.4 1.8 5.1 98 0.1 N 13 15 7 8 1028.1 1028.2 0.0
01/06:00am 5.5 1.9 5.2 98 0.1 N 13 13 7 7 1027.9 1028.0 0.0
01/05:30am 5.0 1.3 4.7 98 0.1 N 13 13 7 7 1027.7 1027.8 0.0
01/05:00am 5.0 1.3 4.7 98 0.1 N 13 15 7 8 1027.8 1027.9 0.0
01/04:30am 4.6 1.6 4.3 98 0.1 NNE 9 11 5 6 1028.0 1028.1 0.0
01/04:00am 4.5 1.9 4.4 99 0.0 N 7 9 4 5 1028.2 1028.3 0.0
01/03:30am 2.2 -0.8 1.9 98 0.1 N 7 7 4 4 1028.3 1028.4 0.0
01/03:00am 2.5 -0.3 2.2 98 0.1 NNE 6 6 3 3 1028.4 1028.5 0.0
01/02:30am 3.7 0.9 3.4 98 0.1 NNE 7 9 4 5 1028.3 1028.4 0.0
01/02:00am 2.3 -0.5 1.9 97 0.2 NNE 6 7 3 4 1028.3 1028.4 0.0
01/01:30am 4.9 2.0 4.5 97 0.2 N 9 13 5 7 1028.4 1028.5 0.0
01/01:00am 5.7 2.2 5.3 97 0.2 NNW 13 15 7 8 1028.7 1028.8 0.0
01/12:30am 5.5 1.9 5.1 97 0.2 N 13 15 7 8 1029.0 1029.1 0.0
01/12:00am 5.8 2.6 5.2 96 0.3 NNW 11 13 6 7 1029.1 1029.2 0.0
 
Date/Time
CST
Temp
°C
App
Temp
°C
Dew
Point
Rel
Hum
%
Delta-T
°C
Wind Press
QNH
hPa
Press
MSL
hPa
Rain
since 9 am
mm
Dir
 
Spd
km/h
Gust
km/h
Spd
kts
Gust
kts
30/11:30pm 6.5 3.8 5.8 95 0.3 NNW 9 11 5 6 1029.4 1029.5 0.0
30/11:00pm 7.5 5.1 6.8 95 0.3 NNW 9 13 5 7 1029.5 1029.6 0.0
30/10:30pm 7.9 5.5 7.0 94 0.4 NNW 9 11 5 6 1029.5 1029.6 0.0
30/10:00pm 8.4 6.4 7.3 93 0.5 NNE 7 7 4 4 1029.6 1029.7 0.0
30/09:30pm 9.0 7.2 7.8 92 0.6 N 7 9 4 5 1029.7 1029.8 0.0
30/09:00pm 8.9 7.0 7.7 92 0.6 N 7 9 4 5 1029.7 1029.8 0.0
30/08:30pm 9.0 7.2 7.8 92 0.6 N 7 9 4 5 1029.9 1030.0 0.0
30/08:00pm 9.2 7.9 7.6 90 0.8 N 4 6 2 3 1029.9 1030.0 0.0
30/07:30pm 9.5 7.3 7.9 90 0.8 WNW 9 13 5 7 1029.6 1029.7 0.0
30/07:00pm 9.3 7.4 7.6 89 0.8 NW 7 9 4 5 1029.4 1029.5 0.0
30/06:30pm 9.2 8.6 7.3 88 0.9 CALM 0 0 0 0 1029.0 1029.1 0.0
30/06:00pm 9.8 7.9 7.7 87 1.0 W 7 9 4 5 1028.8 1028.9 0.0
30/05:30pm 10.9 10.5 8.1 83 1.4 CALM 0 0 0 0 1028.6 1028.7 0.0
30/05:00pm 11.4 9.8 8.1 80 1.6 W 6 6 3 3 1028.5 1028.6 0.0
30/04:30pm 12.4 10.7 8.3 76 2.0 NW 7 9 4 5 1028.5 1028.6 0.0
30/04:00pm 12.2 10.0 7.9 75 2.1 WNW 9 11 5 6 1028.5 1028.6 0.0
30/03:30pm 12.4 10.4 7.3 71 2.5 WNW 7 9 4 5 1028.4 1028.5 0.0
30/03:00pm 12.5 10.1 6.8 68 2.7 WNW 9 15 5 8 1028.3 1028.4 0.0
30/02:30pm 13.1 10.9 7.8 70 2.6 WNW 9 13 5 7 1028.1 1028.2 0.0
30/02:00pm 12.7 10.1 7.6 71 2.5 WNW 11 13 6 7 1028.3 1028.4 0.0
30/01:30pm 12.3 9.0 6.4 67 2.8 WNW 13 15 7 8 1028.4 1028.5 0.0
30/01:00pm 12.3 8.8 7.4 72 2.4 NW 15 22 8 12 1028.8 1028.9 0.0
30/12:30pm 12.5 9.0 7.2 70 2.5 NW 15 20 8 11 1029.0 1029.1 0.0
30/12:00pm 11.9 8.2 6.4 69 2.6 NW 15 20 8 11 1029.4 1029.5 0.0
30/11:30am 12.0 8.3 6.5 69 2.6 NW 15 19 8 10 1029.9 1030.0 0.0
30/11:00am 11.4 8.0 7.5 77 1.9 NW 15 19 8 10 1030.3 1030.4 0.0
30/10:30am 10.1 6.4 6.4 78 1.7 NW 15 19 8 10 1030.6 1030.7 0.0
30/10:00am 8.5 5.9 6.3 86 1.0 NNW 9 13 5 7 1030.6 1030.7 0.0
30/09:30am 8.4 5.9 6.4 87 0.9 NNW 9 13 5 7 1030.4 1030.5 0.0
30/09:00am 7.3 4.7 5.9 91 0.6 NNW 9 11 5 6 1030.2 1030.3 0.0
30/08:30am 6.4 5.4 5.5 94 0.4 CALM 0 0 0 0 1030.2 1030.3 0.0
30/08:00am 5.9 4.8 5.2 95 0.3 CALM 0 0 0 0 1029.9 1030.0 0.0
30/07:30am 5.6 4.5 4.9 95 0.3 CALM 0 0 0 0 1030.0 1030.1 0.0
30/07:00am 5.4 2.9 4.7 95 0.3 NNW 7 9 4 5 1029.9 1030.0 0.0
30/06:30am 4.2 1.7 3.6 96 0.2 N 6 9 3 5 1029.5 1029.6 0.0
30/06:00am 4.8 2.3 3.8 93 0.4 NNW 6 7 3 4 1029.3 1029.4 0.0
30/05:30am 5.9 3.6 5.0 94 0.4 N 6 7 3 4 1029.1 1029.2 0.0
30/05:00am 6.0 3.8 5.3 95 0.3 NNW 6 7 3 4 1028.8 1028.9 0.0
30/04:30am 5.9 4.8 5.3 96 0.3 CALM 0 0 0 0 1028.8 1028.9 0.0
30/04:00am 5.6 4.5 5.0 96 0.3 CALM 0 0 0 0 1029.0 1029.1 0.0
30/03:30am 4.9 3.6 4.3 96 0.3 CALM 0 0 0 0 1029.2 1029.3 0.0
30/03:00am 4.8 3.5 4.2 96 0.3 CALM 0 0 0 0 1029.1 1029.2 0.0
30/02:30am 4.5 2.7 3.6 94 0.4 N 2 6 1 3 1029.1 1029.2 0.0
30/02:00am 4.3 2.4 2.7 89 0.6 NNW 2 6 1 3 1029.2 1029.3 0.0
30/01:30am 6.9 4.6 4.9 87 0.9 NNW 6 9 3 5 1029.3 1029.4 0.0
30/01:00am 7.8 4.3 5.6 86 1.0 NE 13 17 7 9 1029.4 1029.5 0.0
30/12:30am 7.1 6.1 5.7 91 0.6 CALM 0 0 0 0 1029.8 1029.9 0.0
30/12:00am 6.9 5.5 5.5 91 0.6 NNE 2 6 1 3 1030.0 1030.1 0.0
 
Date/Time
CST
Temp
°C
App
Temp
°C
Dew
Point
Rel
Hum
%
Delta-T
°C
Wind Press
QNH
hPa
Press
MSL
hPa
Rain
since 9 am
mm
Dir
 
Spd
km/h
Gust
km/h
Spd
kts
Gust
kts
29/11:30pm 6.7 5.7 5.5 92 0.5 CALM 0 0 0 0 1030.3 1030.4 0.0
29/11:00pm 6.3 5.3 5.4 94 0.4 CALM 0 0 0 0 1030.4 1030.5 0.0
29/10:30pm 6.0 3.8 5.1 94 0.4 NNE 6 9 3 5 1030.4 1030.5 0.0
29/10:00pm 5.1 3.8 4.2 94 0.4 CALM 0 0 0 0 1030.7 1030.8 0.0
29/09:30pm 4.4 2.9 3.2 92 0.5 CALM 0 0 0 0 1030.8 1030.9 0.0
29/09:00pm 4.8 3.4 3.6 92 0.5 CALM 0 0 0 0 1030.8 1030.9 0.0
29/08:30pm 4.4 2.9 3.1 91 0.5 CALM 0 0 0 0 1031.0 1031.1 0.0
29/08:00pm 4.6 3.0 2.5 86 0.8 CALM 0 0 0 0 1030.9 1031.0 0.0
29/07:30pm 5.0 2.7 2.7 85 0.9 NE 4 9 2 5 1030.8 1030.9 0.0
29/07:00pm 6.7 3.0 4.2 84 1.1 ENE 13 15 7 8 1030.7 1030.8 0.0
29/06:30pm 7.2 3.5 4.7 84 1.1 ENE 13 17 7 9 1030.5 1030.6 0.0
29/06:00pm 8.1 4.5 5.2 82 1.3 E 13 19 7 10 1030.4 1030.5 0.0
29/05:30pm 8.4 5.3 5.5 82 1.3 E 11 15 6 8 1030.3 1030.4 0.0
29/05:00pm 10.0 7.1 6.3 78 1.7 E 11 13 6 7 1030.4 1030.5 0.0
29/04:30pm 10.7 7.8 6.6 76 1.9 ENE 11 15 6 8 1030.6 1030.7 0.0
29/04:00pm 11.1 8.2 6.6 74 2.1 ESE 11 15 6 8 1030.8 1030.9 0.0
29/03:30pm 11.2 7.6 6.9 75 2.0 SE 15 20 8 11 1031.1 1031.2 0.0
29/03:00pm 11.8 8.7 7.1 73 2.2 SSE 13 17 7 9 1030.9 1031.0 0.0
29/02:30pm 12.2 10.0 6.3 67 2.8 S 7 13 4 7 1031.0 1031.1 0.0
29/02:00pm 12.4 9.8 7.7 73 2.3 SE 11 15 6 8 1031.3 1031.4 0.0
29/01:30pm 12.1 9.0 7.2 72 2.3 S 13 17 7 9 1031.5 1031.6 0.0
29/01:00pm 12.3 9.9 6.8 69 2.6 SSE 9 15 5 8 1031.9 1032.0 0.0
29/12:30pm 13.1 12.0 6.9 66 3.0 SSW 2 7 1 4 1032.2 1032.3 0.0
29/12:00pm 12.7 11.7 7.2 69 2.6 S 2 11 1 6 1032.5 1032.6 0.0
29/11:30am 12.1 10.4 7.4 73 2.3 S 6 13 3 7 1032.9 1033.0 0.0
29/11:00am 11.7 9.8 7.4 75 2.1 E 7 9 4 5 1033.4 1033.5 0.0
29/10:30am 11.3 8.7 7.8 79 1.7 E 11 15 6 8 1033.7 1033.8 0.0
29/10:00am 10.7 8.3 7.2 79 1.7 ENE 9 11 5 6 1033.9 1034.0 0.0
29/09:30am 9.6 8.4 7.9 89 0.8 ENE 4 13 2 7 1033.8 1033.9 0.0
29/09:00am 8.3 7.8 7.7 96 0.3 CALM 0 0 0 0 1033.8 1033.9 0.2
29/08:30am 5.3 4.2 5.0 98 0.1 CALM 0 0 0 0 1033.7 1033.8 0.2
29/08:00am 3.0 1.4 2.7 98 0.1 CALM 0 0 0 0 1033.5 1033.6 0.2
29/07:30am 2.6 1.0 2.5 99 0.0 CALM 0 6 0 3 1033.2 1033.3 0.2
29/07:00am 2.1 -0.4 1.7 97 0.2 S 4 11 2 6 1033.2 1033.3 0.2
29/06:30am 3.8 2.4 3.5 98 0.1 CALM 0 0 0 0 1033.1 1033.2 0.2
29/06:00am 4.6 3.3 4.2 97 0.2 CALM 0 0 0 0 1033.0 1033.1 0.2
29/05:30am 5.3 4.2 4.9 97 0.2 CALM 0 0 0 0 1033.1 1033.2 0.2
29/05:00am 4.9 3.3 4.6 98 0.1 NNE 2 7 1 4 1033.0 1033.1 0.2
29/04:30am 4.0 2.6 3.7 98 0.1 CALM 0 0 0 0 1033.2 1033.3 0.2
29/04:00am 2.9 1.0 2.6 98 0.1 SE 2 6 1 3 1033.2 1033.3 0.2
29/03:30am 2.0 -0.5 1.7 98 0.1 S 4 7 2 4 1033.4 1033.5 0.2
29/03:00am 2.2 0.5 1.9 98 0.1 CALM 0 0 0 0 1033.4 1033.5 0.2
29/02:30am 2.2 0.5 1.8 97 0.2 CALM 0 0 0 0 1033.4 1033.5 0.2
29/02:00am 2.5 0.5 2.1 97 0.2 ESE 2 6 1 3 1033.6 1033.7 0.2
29/01:30am 3.9 2.4 3.2 95 0.3 CALM 0 6 0 3 1033.6 1033.7 0.2
29/01:00am 6.8 4.8 6.2 96 0.3 NE 6 7 3 4 1033.8 1033.9 0.2
29/12:30am 6.7 4.5 6.3 97 0.2 ENE 7 9 4 5 1033.7 1033.8 0.2
29/12:00am 7.2 5.1 6.8 97 0.2 NE 7 9 4 5 1033.8 1033.9 0.2
 
Date/Time
CST
Temp
°C
App
Temp
°C
Dew
Point
Rel
Hum
%
Delta-T
°C
Wind Press
QNH
hPa
Press
MSL
hPa
Rain
since 9 am
mm
Dir
 
Spd
km/h
Gust
km/h
Spd
kts
Gust
kts
28/11:30pm 4.9 3.3 4.3 96 0.3 NE 2 7 1 4 1033.9 1034.0 0.2
28/11:00pm 5.9 4.8 5.3 96 0.3 CALM 0 0 0 0 1033.9 1034.0 0.2
28/10:30pm 6.1 5.1 5.7 97 0.2 CALM 0 0 0 0 1033.9 1034.0 0.2
28/10:00pm 5.0 3.7 4.3 95 0.3 CALM 0 0 0 0 1034.1 1034.2 0.2
28/09:30pm 5.5 3.5 4.6 94 0.4 SSE 4 6 2 3 1034.2 1034.3 0.2
28/09:00pm 7.1 6.2 6.2 94 0.4 CALM 0 0 0 0 1034.2 1034.3 0.2
28/08:30pm 7.5 5.9 6.4 93 0.5 SE 4 6 2 3 1034.2 1034.3 0.2
28/08:00pm 8.1 7.5 7.2 94 0.4 CALM 0 2 0 1 1034.2 1034.3 0.2
28/07:30pm 7.3 4.7 6.2 93 0.5 S 9 11 5 6 1034.2 1034.3 0.2
28/07:00pm 7.8 4.9 6.4 91 0.6 SSE 11 11 6 6 1033.9 1034.0 0.2
28/06:30pm 8.5 6.1 7.0 90 0.7 SSE 9 11 5 6 1033.8 1033.9 0.2
28/06:00pm 9.3 7.3 7.3 87 0.9 SSE 7 9 4 5 1033.5 1033.6 0.2
28/05:30pm 11.6 9.6 8.8 83 1.4 SSW 9 11 5 6 1033.4 1033.5 0.2
28/05:00pm 12.2 10.0 9.4 83 1.4 SW 11 15 6 8 1033.4 1033.5 0.2
28/04:30pm 13.1 11.4 9.9 81 1.6 SW 9 13 5 7 1033.3 1033.4 0.2
28/04:00pm 14.1 12.1 10.1 77 2.1 SW 11 13 6 7 1033.2 1033.3 0.2
28/03:30pm 14.3 12.7 10.1 76 2.2 SW 9 13 5 7 1033.1 1033.2 0.2
28/03:00pm 14.7 14.7 9.7 72 2.6 CALM 0 4 0 2 1033.0 1033.1 0.2
28/02:30pm 15.1 15.1 9.9 71 2.7 CALM 0 0 0 0 1033.0 1033.1 0.0
28/02:00pm 14.6 13.6 10.2 75 2.3 WSW 6 9 3 5 1033.2 1033.3 0.0
28/01:30pm 14.8 15.0 10.6 76 2.2 CALM 0 4 0 2 1033.3 1033.4 0.0
28/01:00pm 14.2 14.3 10.0 76 2.2 CALM 0 7 0 4 1033.5 1033.6 0.0
28/12:30pm 14.2 14.4 10.4 78 2.0 CALM 0 0 0 0 1033.8 1033.9 0.0
28/12:00pm 13.9 14.1 10.5 80 1.8 CALM 0 0 0 0 1034.2 1034.3 0.0
28/11:30am 12.9 13.0 10.3 84 1.3 CALM 0 0 0 0 1034.4 1034.5 0.0
28/11:00am 12.3 12.5 10.5 89 0.9 CALM 0 0 0 0 1034.9 1035.0 0.0
28/10:30am 11.6 11.7 10.2 91 0.7 CALM 0 0 0 0 1035.1 1035.2 0.0
28/10:00am 10.9 11.0 10.0 94 0.5 CALM 0 0 0 0 1035.1 1035.2 0.0

Other Formats:

Comma delimited format used in spreadsheet applications
http://www.bom.gov.au/fwo/IDS60801/IDS60801.94820.axf

JavaScript Object Notation format (JSON) in row-major order
http://www.bom.gov.au/fwo/IDS60801/IDS60801.94820.json